createdAt,value
2022-12-31T00:01:31.882Z,101377.28
2022-12-31T00:04:36.372Z,101390.84
2022-12-31T00:10:43.717Z,101396.91
2022-12-31T00:13:48.863Z,101410.19
2022-12-31T00:16:53.888Z,101403.00
2022-12-31T00:19:58.746Z,101385.34
2022-12-31T00:23:03.378Z,101395.06
2022-12-31T00:26:14.316Z,101406.94
2022-12-31T00:29:18.759Z,101388.38
2022-12-31T00:32:23.289Z,101390.97
2022-12-31T00:35:28.051Z,101389.16
2022-12-31T00:38:32.741Z,101381.06
2022-12-31T00:41:37.713Z,101380.47
2022-12-31T00:44:42.084Z,101387.66
2022-12-31T00:47:46.532Z,101380.91
2022-12-31T00:50:51.542Z,101370.16
2022-12-31T00:53:58.110Z,101383.53
2022-12-31T00:57:02.800Z,101372.41
2022-12-31T01:00:08.525Z,101325.41
2022-12-31T01:03:13.187Z,101378.75
2022-12-31T01:06:18.390Z,101382.56
2022-12-31T01:09:23.040Z,101384.22
2022-12-31T01:12:27.755Z,101368.00
2022-12-31T01:15:41.568Z,101356.13
2022-12-31T01:18:49.172Z,101381.13
2022-12-31T01:21:54.981Z,101371.34
2022-12-31T01:24:59.600Z,101353.78
2022-12-31T01:28:04.979Z,101352.66
2022-12-31T01:31:12.398Z,101330.63
2022-12-31T01:34:16.608Z,101329.44
2022-12-31T01:37:21.445Z,101329.22
2022-12-31T01:40:25.931Z,101330.31
2022-12-31T01:43:48.912Z,101317.34
2022-12-31T01:46:57.796Z,101297.94
2022-12-31T01:50:14.709Z,101319.28
2022-12-31T01:53:20.165Z,101317.75
2022-12-31T01:56:24.925Z,101309.25
2022-12-31T01:59:31.867Z,101301.78
2022-12-31T02:02:37.103Z,101257.47
2022-12-31T02:05:52.057Z,101292.09
2022-12-31T02:08:59.126Z,101270.19
2022-12-31T02:12:03.759Z,101277.44
2022-12-31T02:15:09.256Z,101267.63
2022-12-31T02:18:22.031Z,101230.41
2022-12-31T02:21:42.961Z,101255.09
2022-12-31T02:25:14.931Z,101251.47
2022-12-31T02:28:37.301Z,101249.63
2022-12-31T02:31:51.858Z,101228.78
2022-12-31T02:35:04.403Z,101228.22
2022-12-31T02:38:14.244Z,101224.88
2022-12-31T02:41:39.089Z,101224.47
2022-12-31T02:44:43.995Z,101225.09
2022-12-31T02:47:54.362Z,101218.91
2022-12-31T02:51:35.064Z,101227.56
2022-12-31T02:54:53.105Z,101210.13
2022-12-31T02:58:10.263Z,101190.22
2022-12-31T03:01:38.207Z,101197.00
2022-12-31T03:04:52.555Z,101184.41
2022-12-31T03:07:57.579Z,101186.03
2022-12-31T03:11:21.853Z,101181.16
2022-12-31T03:14:26.195Z,101177.94
2022-12-31T03:17:30.795Z,101159.88
2022-12-31T03:20:55.842Z,101165.41
2022-12-31T03:24:18.842Z,101157.16
2022-12-31T03:27:23.387Z,101142.72
2022-12-31T03:30:29.057Z,101092.84
2022-12-31T03:33:39.255Z,101127.56
2022-12-31T03:36:43.637Z,101141.59
2022-12-31T03:39:48.070Z,101141.25
2022-12-31T03:42:52.911Z,101133.84
2022-12-31T03:46:00.500Z,101124.75
2022-12-31T03:49:06.111Z,101122.75
2022-12-31T03:52:10.912Z,101111.22
2022-12-31T03:55:15.778Z,101104.78
2022-12-31T03:58:20.356Z,101107.50
2022-12-31T04:01:25.220Z,101094.91
2022-12-31T04:04:30.070Z,101091.06
2022-12-31T04:07:34.753Z,101048.44
2022-12-31T04:10:39.437Z,101078.09
2022-12-31T04:13:43.930Z,101075.94
2022-12-31T04:16:48.564Z,101056.16
2022-12-31T04:19:52.782Z,101068.53
2022-12-31T04:22:57.070Z,101047.75
2022-12-31T04:26:16.585Z,101049.53
2022-12-31T04:29:21.173Z,101063.53
2022-12-31T04:32:25.501Z,101019.66
2022-12-31T04:35:29.895Z,101058.81
2022-12-31T04:38:34.944Z,101062.38
2022-12-31T04:41:39.339Z,101055.69
2022-12-31T04:44:43.700Z,101048.69
2022-12-31T04:47:48.184Z,101045.09
2022-12-31T04:50:52.548Z,101052.47
2022-12-31T04:53:57.654Z,101054.97
2022-12-31T04:57:02.285Z,101044.56
2022-12-31T05:00:08.844Z,101055.88
2022-12-31T05:03:14.297Z,101065.06
2022-12-31T05:06:21.712Z,101044.56
2022-12-31T05:09:28.453Z,101055.38
2022-12-31T05:12:33.441Z,101053.59
2022-12-31T05:15:38.224Z,101066.50
2022-12-31T05:18:42.835Z,101029.81
2022-12-31T05:22:07.257Z,101040.13
2022-12-31T05:25:11.795Z,101047.75
2022-12-31T05:28:17.850Z,101045.47
2022-12-31T05:31:22.254Z,101043.72
2022-12-31T05:34:26.619Z,101034.22
2022-12-31T05:37:32.110Z,101046.44
2022-12-31T05:40:37.006Z,101043.69
2022-12-31T05:43:41.371Z,101035.66
2022-12-31T05:46:45.883Z,101039.53
2022-12-31T05:49:50.449Z,101044.34
2022-12-31T05:52:54.987Z,101040.41
2022-12-31T05:55:59.497Z,101039.81
2022-12-31T05:59:04.223Z,101036.16
2022-12-31T06:02:10.271Z,101064.47
2022-12-31T06:05:14.880Z,101052.63
2022-12-31T06:08:19.692Z,101045.56
2022-12-31T06:11:24.866Z,101068.88
2022-12-31T06:14:29.415Z,101073.19
2022-12-31T06:17:34.883Z,101065.72
2022-12-31T06:20:39.556Z,101072.66
2022-12-31T06:23:43.938Z,101055.44
2022-12-31T06:26:49.094Z,101075.75
2022-12-31T06:29:53.506Z,101076.00
2022-12-31T06:32:58.405Z,101081.88
2022-12-31T06:36:05.224Z,101075.53
2022-12-31T06:39:09.991Z,101091.94
2022-12-31T06:42:15.263Z,101063.00
2022-12-31T06:45:19.748Z,101078.28
2022-12-31T06:48:24.569Z,101073.13
2022-12-31T06:51:29.142Z,101069.03
2022-12-31T06:54:34.550Z,101076.50
2022-12-31T06:57:39.255Z,101077.41
2022-12-31T07:01:00.033Z,101064.06
2022-12-31T07:04:19.716Z,101085.31
2022-12-31T07:07:43.327Z,101090.69
2022-12-31T07:11:01.145Z,101084.81
2022-12-31T07:14:47.601Z,101080.78
2022-12-31T07:17:54.862Z,101089.75
2022-12-31T07:20:59.659Z,101077.38
2022-12-31T07:24:07.797Z,101078.91
2022-12-31T07:27:42.609Z,101095.97
2022-12-31T07:31:11.960Z,101092.38
2022-12-31T07:35:00.995Z,101089.56
2022-12-31T07:38:24.215Z,101096.00
2022-12-31T07:41:37.405Z,101093.44
2022-12-31T07:44:57.208Z,101095.53
2022-12-31T07:48:03.363Z,101101.78
2022-12-31T07:51:11.488Z,101104.38
2022-12-31T07:54:17.109Z,101098.91
2022-12-31T07:57:24.908Z,101108.84
2022-12-31T08:00:33.453Z,100971.06
2022-12-31T08:04:26.400Z,101107.22
2022-12-31T08:07:43.438Z,101114.53
2022-12-31T08:10:58.036Z,101107.81
2022-12-31T08:14:03.719Z,101113.56
2022-12-31T08:17:11.185Z,101092.59
2022-12-31T08:20:19.630Z,101118.03
2022-12-31T08:23:38.073Z,101111.66
2022-12-31T08:27:03.369Z,101107.03
2022-12-31T08:30:13.587Z,101105.25
2022-12-31T08:33:33.952Z,101098.56
2022-12-31T08:36:57.809Z,101114.94
2022-12-31T08:40:20.273Z,101105.16
2022-12-31T08:43:50.428Z,101124.06
2022-12-31T08:47:04.171Z,101128.63
2022-12-31T08:50:16.013Z,101113.03
2022-12-31T08:53:20.995Z,101120.66
2022-12-31T08:56:33.962Z,101126.03
2022-12-31T08:59:53.458Z,101129.44
2022-12-31T09:03:20.860Z,101137.56
2022-12-31T09:06:32.993Z,101133.63
2022-12-31T09:10:17.963Z,101123.66
2022-12-31T09:13:43.929Z,101127.63
2022-12-31T09:16:54.739Z,101124.84
2022-12-31T09:19:59.799Z,101124.66
2022-12-31T09:23:05.874Z,101108.28
2022-12-31T09:26:10.416Z,101125.28
2022-12-31T09:29:26.763Z,101125.84
2022-12-31T09:32:51.914Z,101128.50
2022-12-31T09:36:05.105Z,101116.53
2022-12-31T09:39:44.553Z,101117.78
2022-12-31T09:43:21.919Z,101118.81
2022-12-31T09:47:03.634Z,101115.34
2022-12-31T09:50:46.236Z,101119.22
2022-12-31T09:53:59.902Z,101119.25
2022-12-31T09:57:41.868Z,101109.78
2022-12-31T10:01:04.628Z,101128.88
2022-12-31T10:04:36.383Z,101128.63
2022-12-31T10:07:52.356Z,101085.03
2022-12-31T10:11:03.958Z,101119.97
2022-12-31T10:14:36.020Z,101125.44
2022-12-31T10:17:59.759Z,101104.16
2022-12-31T10:21:22.937Z,101119.75
2022-12-31T10:24:51.782Z,101112.41
2022-12-31T10:28:37.541Z,101091.88
2022-12-31T10:31:51.817Z,101097.88
2022-12-31T10:35:33.560Z,101117.09
2022-12-31T10:38:45.791Z,101108.09
2022-12-31T10:42:26.932Z,101108.66
2022-12-31T10:45:54.393Z,101095.38
2022-12-31T10:49:36.095Z,101114.19
2022-12-31T10:53:03.963Z,101114.78
2022-12-31T10:56:51.989Z,101103.31
2022-12-31T11:00:11.147Z,101110.31
2022-12-31T11:03:34.174Z,101116.53
2022-12-31T11:07:23.893Z,101116.75
2022-12-31T11:10:34.228Z,101120.03
2022-12-31T11:14:20.387Z,101115.75
2022-12-31T11:17:35.858Z,101123.66
2022-12-31T11:21:01.574Z,101118.94
2022-12-31T11:24:36.359Z,101115.22
2022-12-31T11:27:49.939Z,101104.72
2022-12-31T11:31:13.520Z,101119.06
2022-12-31T11:34:50.063Z,101113.06
2022-12-31T11:38:10.279Z,101121.09
2022-12-31T11:41:37.029Z,101115.00
2022-12-31T11:44:50.690Z,101131.91
2022-12-31T11:48:29.723Z,101132.00
2022-12-31T11:51:50.339Z,101135.13
2022-12-31T11:55:26.037Z,101131.31
2022-12-31T11:58:31.244Z,101131.66
2022-12-31T12:01:49.623Z,101129.38
2022-12-31T12:04:57.312Z,101119.03
2022-12-31T12:08:03.072Z,101130.25
2022-12-31T12:11:22.992Z,101127.41
2022-12-31T12:14:37.469Z,101129.31
2022-12-31T12:17:42.218Z,101120.69
2022-12-31T12:20:48.084Z,101104.00
2022-12-31T12:23:59.509Z,101132.56
2022-12-31T12:27:04.154Z,101135.22
2022-12-31T12:30:19.462Z,101122.97
2022-12-31T12:33:24.208Z,101121.72
2022-12-31T12:36:28.968Z,101119.88
2022-12-31T12:39:35.803Z,101126.81
2022-12-31T12:42:52.002Z,101125.56
2022-12-31T12:46:03.820Z,101123.50
2022-12-31T12:49:10.038Z,101136.91
2022-12-31T12:52:59.054Z,101165.63
2022-12-31T12:56:23.827Z,101159.84
2022-12-31T12:59:56.006Z,101151.38
2022-12-31T13:03:22.070Z,101160.38
2022-12-31T13:06:34.407Z,101162.03
2022-12-31T13:10:30.749Z,101156.34
2022-12-31T13:13:44.196Z,101166.13
2022-12-31T13:17:04.950Z,101162.38
2022-12-31T13:20:34.063Z,101158.75
2022-12-31T13:24:10.607Z,101152.06
2022-12-31T13:27:21.388Z,101164.78
2022-12-31T13:30:38.982Z,101164.59
2022-12-31T13:33:53.959Z,101138.03
2022-12-31T13:37:04.458Z,101163.41
2022-12-31T13:40:22.794Z,101159.94
2022-12-31T13:43:51.368Z,101174.75
2022-12-31T13:47:17.170Z,101174.25
2022-12-31T13:50:41.617Z,101185.22
2022-12-31T13:54:01.460Z,101178.53
2022-12-31T13:57:28.748Z,101173.69
2022-12-31T14:01:02.420Z,101176.56
2022-12-31T14:04:24.054Z,101194.31
2022-12-31T14:07:45.416Z,101170.69
2022-12-31T14:10:56.223Z,101205.38
2022-12-31T14:14:27.114Z,101195.31
2022-12-31T14:17:43.097Z,101189.97
2022-12-31T14:21:31.510Z,101190.22
2022-12-31T14:24:46.746Z,101199.78
2022-12-31T14:27:54.209Z,101192.03
2022-12-31T14:31:13.241Z,101202.34
2022-12-31T14:34:41.794Z,101213.03
2022-12-31T14:38:04.625Z,101219.47
2022-12-31T14:41:29.549Z,101215.47
2022-12-31T14:45:00.160Z,101205.94
2022-12-31T14:48:30.923Z,101217.03
2022-12-31T14:51:38.330Z,101214.34
2022-12-31T14:54:43.512Z,101203.50
2022-12-31T14:58:25.777Z,101214.09
2022-12-31T15:01:23.265Z,101211.78
2022-12-31T15:04:48.951Z,101217.53
2022-12-31T15:08:25.112Z,101218.38
2022-12-31T15:11:47.050Z,101234.63
2022-12-31T15:15:07.560Z,101225.84
2022-12-31T15:18:25.962Z,101215.75
2022-12-31T15:22:07.820Z,101225.22
2022-12-31T15:25:27.766Z,101197.72
2022-12-31T15:28:41.227Z,101234.97
2022-12-31T15:31:49.318Z,101225.78
2022-12-31T15:35:27.266Z,101242.50
2022-12-31T15:38:38.514Z,101250.41
2022-12-31T15:42:18.563Z,101252.63
2022-12-31T15:45:26.789Z,101229.78
2022-12-31T15:49:04.265Z,101250.94
2022-12-31T15:52:19.011Z,101249.00
2022-12-31T15:55:46.717Z,101257.16
2022-12-31T15:58:57.388Z,101244.41
2022-12-31T16:02:02.248Z,101207.03
2022-12-31T16:05:07.428Z,101260.38
2022-12-31T16:08:19.843Z,101276.63
2022-12-31T16:11:25.560Z,101250.41
2022-12-31T16:14:47.718Z,101259.94
2022-12-31T16:18:07.005Z,101264.66
2022-12-31T16:21:36.949Z,101276.59
2022-12-31T16:25:02.922Z,101276.16
2022-12-31T16:28:07.520Z,101262.25
2022-12-31T16:31:18.482Z,101244.16
2022-12-31T16:34:25.427Z,101261.66
2022-12-31T16:37:30.060Z,101259.59
2022-12-31T16:40:34.484Z,101257.88
2022-12-31T16:43:41.129Z,101270.81
2022-12-31T16:46:46.248Z,101259.97
2022-12-31T16:50:12.062Z,101259.22
2022-12-31T16:53:22.331Z,101259.66
2022-12-31T16:56:39.711Z,101261.38
2022-12-31T16:59:47.654Z,101271.50
2022-12-31T17:03:39.701Z,101271.97
2022-12-31T17:06:45.131Z,101276.97
2022-12-31T17:09:49.439Z,101281.00
2022-12-31T17:16:23.247Z,101276.47
2022-12-31T17:19:27.359Z,101294.25
2022-12-31T17:22:41.700Z,101277.44
2022-12-31T17:25:46.333Z,101271.50
2022-12-31T17:28:54.172Z,101304.44
2022-12-31T17:32:38.325Z,101305.75
2022-12-31T17:35:44.757Z,101298.22
2022-12-31T17:38:49.358Z,101301.84
2022-12-31T17:41:58.200Z,101319.63
2022-12-31T17:45:07.747Z,101324.56
2022-12-31T17:48:17.336Z,101331.13
2022-12-31T17:51:24.662Z,101324.50
2022-12-31T17:54:29.447Z,101331.00
2022-12-31T17:57:34.113Z,101339.38
2022-12-31T18:00:38.957Z,101325.81
2022-12-31T18:03:44.592Z,101325.97
2022-12-31T18:06:49.194Z,101319.47
2022-12-31T18:09:53.649Z,101331.44
2022-12-31T18:12:59.737Z,101302.63
2022-12-31T18:16:04.437Z,101324.16
2022-12-31T18:19:45.798Z,101305.84
2022-12-31T18:22:43.633Z,101335.50
2022-12-31T18:25:48.812Z,101312.50
2022-12-31T18:28:54.044Z,101324.75
2022-12-31T18:31:58.615Z,101334.00
2022-12-31T18:35:04.065Z,101342.56
2022-12-31T18:38:16.834Z,101332.59
2022-12-31T18:41:30.045Z,101340.84
2022-12-31T18:44:34.623Z,101312.44
2022-12-31T18:47:39.299Z,101332.91
2022-12-31T18:50:44.140Z,101328.28
2022-12-31T18:53:49.172Z,101303.19
2022-12-31T18:56:57.047Z,101346.97
2022-12-31T19:00:01.870Z,101336.34
2022-12-31T19:03:08.444Z,101355.34
2022-12-31T19:06:12.846Z,101338.44
2022-12-31T19:09:44.236Z,101339.50
2022-12-31T19:12:42.447Z,101344.69
2022-12-31T19:15:50.148Z,101338.53
2022-12-31T19:18:54.806Z,101328.34
2022-12-31T19:21:59.247Z,101338.22
2022-12-31T19:25:03.555Z,101365.44
2022-12-31T19:28:20.776Z,101372.06
2022-12-31T19:31:25.236Z,101344.84
2022-12-31T19:34:29.902Z,101370.19
2022-12-31T19:37:34.696Z,101371.59
2022-12-31T19:40:41.699Z,101362.84
2022-12-31T19:43:48.172Z,101348.53
2022-12-31T19:46:52.645Z,101358.72
2022-12-31T19:49:57.472Z,101356.53
2022-12-31T19:53:01.859Z,101339.47
2022-12-31T19:56:07.206Z,101362.41
2022-12-31T19:59:12.140Z,101345.00
2022-12-31T20:02:16.785Z,101346.44
2022-12-31T20:05:21.455Z,101352.66
2022-12-31T20:08:26.093Z,101344.91
2022-12-31T20:11:30.787Z,101350.47
2022-12-31T20:14:35.493Z,101359.75
2022-12-31T20:17:40.049Z,101340.19
2022-12-31T20:20:55.764Z,101374.53
2022-12-31T20:24:00.631Z,101350.25
2022-12-31T20:27:05.374Z,101346.22
2022-12-31T20:30:11.137Z,101351.81
2022-12-31T20:33:19.012Z,101329.84
2022-12-31T20:36:25.401Z,101353.22
2022-12-31T20:39:29.861Z,101361.97
2022-12-31T20:42:34.544Z,101354.34
2022-12-31T20:45:41.797Z,101362.56
2022-12-31T20:48:48.134Z,101369.19
2022-12-31T20:51:52.670Z,101351.88
2022-12-31T20:54:57.268Z,101344.91
2022-12-31T20:58:01.853Z,101338.66
2022-12-31T21:01:08.962Z,101333.00
2022-12-31T21:04:13.508Z,101326.88
2022-12-31T21:07:18.102Z,101332.91
2022-12-31T21:10:22.701Z,101338.63
2022-12-31T21:13:27.364Z,101339.97
2022-12-31T21:16:32.771Z,101339.03
2022-12-31T21:19:37.324Z,101340.38
2022-12-31T21:22:42.115Z,101342.47
2022-12-31T21:25:47.137Z,101294.28
2022-12-31T21:28:51.539Z,101364.03
2022-12-31T21:31:56.029Z,101345.44
2022-12-31T21:35:40.073Z,101304.28
2022-12-31T21:38:25.010Z,101333.31
2022-12-31T21:41:48.313Z,101349.03
2022-12-31T21:44:53.169Z,101358.53
2022-12-31T21:48:19.765Z,101348.31
2022-12-31T21:51:24.711Z,101372.66
2022-12-31T21:54:48.152Z,101378.25
2022-12-31T21:58:25.421Z,101360.28
2022-12-31T22:01:41.531Z,101376.47
2022-12-31T22:05:03.018Z,101383.22
2022-12-31T22:08:08.806Z,101379.06
2022-12-31T22:11:14.747Z,101363.00
2022-12-31T22:14:19.684Z,101331.91
2022-12-31T22:17:24.286Z,101384.38
2022-12-31T22:20:28.989Z,101317.66
2022-12-31T22:23:34.229Z,101378.69
2022-12-31T22:26:46.409Z,101395.94
2022-12-31T22:29:51.181Z,101361.84
2022-12-31T22:32:55.727Z,101384.97
2022-12-31T22:36:00.251Z,101385.59
2022-12-31T22:39:04.757Z,101389.31
2022-12-31T22:42:09.012Z,101305.53
2022-12-31T22:45:13.580Z,101380.38
2022-12-31T22:48:18.080Z,101368.06
2022-12-31T22:51:24.315Z,101354.47
2022-12-31T22:54:28.989Z,101364.78
2022-12-31T22:57:33.579Z,101350.44
2022-12-31T23:00:43.191Z,101373.56
2022-12-31T23:03:52.194Z,101371.72
2022-12-31T23:06:56.822Z,101360.97
2022-12-31T23:10:19.616Z,101358.63
2022-12-31T23:13:49.483Z,101375.84
2022-12-31T23:17:29.486Z,101303.47
2022-12-31T23:20:54.676Z,101373.16
2022-12-31T23:23:59.075Z,101362.44
2022-12-31T23:27:04.004Z,101369.38
2022-12-31T23:30:08.538Z,101369.53
2022-12-31T23:33:19.519Z,101371.59
2022-12-31T23:36:24.619Z,101362.97
2022-12-31T23:39:29.587Z,101364.19
2022-12-31T23:42:33.919Z,101367.19
2022-12-31T23:45:38.695Z,101365.06
2022-12-31T23:48:43.398Z,101333.31
2022-12-31T23:51:47.598Z,101342.94
2022-12-31T23:54:52.399Z,101347.06
2022-12-31T23:57:56.832Z,101348.09
